sensor_id;sensor_type;location;lat;lon;timestamp;pressure;altitude;pressure_sealevel;temperature;humidity
21760;BME280;11041;50.854;20.580;2023-06-26T00:01:44;98755.78;;;13.05;100.00
21760;BME280;11041;50.854;20.580;2023-06-26T00:04:11;98781.06;;;13.16;100.00
21760;BME280;11041;50.854;20.580;2023-06-26T00:06:41;98758.41;;;13.02;100.00
21760;BME280;11041;50.854;20.580;2023-06-26T00:09:08;98759.06;;;12.98;100.00
21760;BME280;11041;50.854;20.580;2023-06-26T00:11:35;98775.09;;;13.05;100.00
21760;BME280;11041;50.854;20.580;2023-06-26T00:14:02;98755.97;;;13.00;100.00
21760;BME280;11041;50.854;20.580;2023-06-26T00:16:29;98760.69;;;12.99;100.00
21760;BME280;11041;50.854;20.580;2023-06-26T00:18:57;98772.97;;;13.11;100.00
21760;BME280;11041;50.854;20.580;2023-06-26T00:21:25;98756.28;;;12.98;100.00
21760;BME280;11041;50.854;20.580;2023-06-26T00:23:52;98757.44;;;12.97;100.00
21760;BME280;11041;50.854;20.580;2023-06-26T00:26:18;98755.97;;;13.00;100.00
21760;BME280;11041;50.854;20.580;2023-06-26T00:28:45;98775.38;;;13.12;100.00
21760;BME280;11041;50.854;20.580;2023-06-26T00:31:11;98769.06;;;13.12;100.00
21760;BME280;11041;50.854;20.580;2023-06-26T00:33:38;98751.25;;;13.00;99.93
21760;BME280;11041;50.854;20.580;2023-06-26T00:36:05;98755.16;;;12.99;99.59
21760;BME280;11041;50.854;20.580;2023-06-26T00:38:31;98752.25;;;12.96;99.06
21760;BME280;11041;50.854;20.580;2023-06-26T00:40:58;98755.84;;;12.96;98.88
21760;BME280;11041;50.854;20.580;2023-06-26T00:43:24;98774.78;;;13.07;98.78
21760;BME280;11041;50.854;20.580;2023-06-26T00:45:50;98780.97;;;13.04;98.71
21760;BME280;11041;50.854;20.580;2023-06-26T00:48:18;98771.38;;;13.01;98.51
21760;BME280;11041;50.854;20.580;2023-06-26T00:50:45;98764.44;;;12.95;98.23
21760;BME280;11041;50.854;20.580;2023-06-26T00:53:12;98766.38;;;12.94;98.24
21760;BME280;11041;50.854;20.580;2023-06-26T00:55:39;98751.19;;;12.79;98.37
21760;BME280;11041;50.854;20.580;2023-06-26T00:58:05;98756.56;;;12.76;98.35
21760;BME280;11041;50.854;20.580;2023-06-26T01:00:32;98755.44;;;12.68;98.75
21760;BME280;11041;50.854;20.580;2023-06-26T01:02:58;98750.59;;;12.65;99.04
21760;BME280;11041;50.854;20.580;2023-06-26T01:05:28;98768.25;;;12.73;99.52
21760;BME280;11041;50.854;20.580;2023-06-26T01:07:57;98754.97;;;12.57;99.87
21760;BME280;11041;50.854;20.580;2023-06-26T01:10:24;98746.88;;;12.52;99.58
21760;BME280;11041;50.854;20.580;2023-06-26T01:12:54;98749.31;;;12.54;100.00
21760;BME280;11041;50.854;20.580;2023-06-26T01:15:20;98759.53;;;12.53;100.00
21760;BME280;11041;50.854;20.580;2023-06-26T01:17:49;98734.44;;;12.38;100.00
21760;BME280;11041;50.854;20.580;2023-06-26T01:20:19;98738.66;;;12.35;100.00
21760;BME280;11041;50.854;20.580;2023-06-26T01:28:53;98757.78;;;12.40;100.00
21760;BME280;11041;50.854;20.580;2023-06-26T01:31:20;98743.69;;;12.33;100.00
21760;BME280;11041;50.854;20.580;2023-06-26T01:33:47;98742.88;;;12.32;100.00
21760;BME280;11041;50.854;20.580;2023-06-26T01:36:16;98734.94;;;12.31;100.00
21760;BME280;11041;50.854;20.580;2023-06-26T01:38:43;98748.38;;;12.41;100.00
21760;BME280;11041;50.854;20.580;2023-06-26T01:41:10;98744.00;;;12.40;100.00
21760;BME280;11041;50.854;20.580;2023-06-26T01:46:30;98739.63;;;12.30;100.00
21760;BME280;11041;50.854;20.580;2023-06-26T01:52:12;98750.00;;;12.33;100.00
21760;BME280;11041;50.854;20.580;2023-06-26T01:57:20;98740.44;;;12.31;99.71
21760;BME280;11041;50.854;20.580;2023-06-26T01:59:52;98742.72;;;12.29;99.28
21760;BME280;11041;50.854;20.580;2023-06-26T02:02:20;98725.06;;;12.21;99.26
21760;BME280;11041;50.854;20.580;2023-06-26T02:04:46;98721.50;;;12.12;98.83
21760;BME280;11041;50.854;20.580;2023-06-26T02:07:14;98733.50;;;12.16;98.85
21760;BME280;11041;50.854;20.580;2023-06-26T02:09:41;98728.97;;;12.11;98.91
21760;BME280;11041;50.854;20.580;2023-06-26T02:12:08;98739.50;;;12.09;98.78
21760;BME280;11041;50.854;20.580;2023-06-26T02:14:34;98712.97;;;11.96;99.04
21760;BME280;11041;50.854;20.580;2023-06-26T02:17:01;98711.19;;;11.91;98.84
21760;BME280;11041;50.854;20.580;2023-06-26T02:19:27;98720.69;;;11.85;98.58
21760;BME280;11041;50.854;20.580;2023-06-26T02:21:54;98709.03;;;11.80;98.91
21760;BME280;11041;50.854;20.580;2023-06-26T02:24:21;98737.56;;;11.92;98.99
21760;BME280;11041;50.854;20.580;2023-06-26T02:26:48;98712.94;;;11.79;99.50
21760;BME280;11041;50.854;20.580;2023-06-26T02:29:15;98728.34;;;11.88;99.29
21760;BME280;11041;50.854;20.580;2023-06-26T02:31:42;98707.09;;;11.71;99.56
21760;BME280;11041;50.854;20.580;2023-06-26T02:34:09;98734.63;;;11.80;99.70
21760;BME280;11041;50.854;20.580;2023-06-26T02:36:36;98729.59;;;11.82;99.42
21760;BME280;11041;50.854;20.580;2023-06-26T02:39:02;98727.50;;;11.79;99.90
21760;BME280;11041;50.854;20.580;2023-06-26T02:41:28;98721.50;;;11.77;99.94
21760;BME280;11041;50.854;20.580;2023-06-26T02:43:55;98733.50;;;11.81;99.79
21760;BME280;11041;50.854;20.580;2023-06-26T02:46:21;98722.00;;;11.70;99.63
21760;BME280;11041;50.854;20.580;2023-06-26T02:48:48;98737.88;;;11.82;99.36
21760;BME280;11041;50.854;20.580;2023-06-26T02:51:14;98721.50;;;11.68;99.24
21760;BME280;11041;50.854;20.580;2023-06-26T02:53:41;98718.75;;;11.68;99.26
21760;BME280;11041;50.854;20.580;2023-06-26T02:56:07;98725.53;;;11.71;99.08
21760;BME280;11041;50.854;20.580;2023-06-26T02:58:34;98734.63;;;11.80;99.00
21760;BME280;11041;50.854;20.580;2023-06-26T03:01:00;98739.31;;;11.80;99.07
21760;BME280;11041;50.854;20.580;2023-06-26T03:03:27;98734.97;;;11.79;99.08
21760;BME280;11041;50.854;20.580;2023-06-26T03:05:54;98739.97;;;11.77;99.19
21760;BME280;11041;50.854;20.580;2023-06-26T03:08:21;98727.03;;;11.77;99.14
21760;BME280;11041;50.854;20.580;2023-06-26T03:10:47;98710.00;;;11.66;99.54
21760;BME280;11041;50.854;20.580;2023-06-26T03:13:14;98738.53;;;11.79;99.92
21760;BME280;11041;50.854;20.580;2023-06-26T03:15:40;98741.41;;;11.83;100.00
21760;BME280;11041;50.854;20.580;2023-06-26T03:18:07;98727.03;;;11.86;100.00
21760;BME280;11041;50.854;20.580;2023-06-26T03:20:35;98720.84;;;11.80;100.00
21760;BME280;11041;50.854;20.580;2023-06-26T03:23:02;98716.50;;;11.79;100.00
21760;BME280;11041;50.854;20.580;2023-06-26T03:25:28;98733.34;;;11.95;100.00
21760;BME280;11041;50.854;20.580;2023-06-26T03:27:55;98717.78;;;11.90;100.00
21760;BME280;11041;50.854;20.580;2023-06-26T03:30:21;98730.75;;;12.07;100.00
21760;BME280;11041;50.854;20.580;2023-06-26T03:32:48;98713.59;;;12.02;100.00
21760;BME280;11041;50.854;20.580;2023-06-26T03:35:14;98735.44;;;12.15;100.00
21760;BME280;11041;50.854;20.580;2023-06-26T03:37:41;98723.63;;;12.06;100.00
21760;BME280;11041;50.854;20.580;2023-06-26T03:40:09;98712.47;;;12.03;100.00
21760;BME280;11041;50.854;20.580;2023-06-26T03:42:35;98720.88;;;12.15;100.00
21760;BME280;11041;50.854;20.580;2023-06-26T03:45:02;98707.59;;;12.17;100.00
21760;BME280;11041;50.854;20.580;2023-06-26T03:47:29;98716.47;;;12.23;100.00
21760;BME280;11041;50.854;20.580;2023-06-26T03:49:55;98717.59;;;12.30;100.00
21760;BME280;11041;50.854;20.580;2023-06-26T03:52:22;98733.28;;;12.47;100.00
21760;BME280;11041;50.854;20.580;2023-06-26T03:54:48;98717.91;;;12.46;100.00
21760;BME280;11041;50.854;20.580;2023-06-26T03:57:15;98709.28;;;12.48;100.00
21760;BME280;11041;50.854;20.580;2023-06-26T03:59:41;98719.00;;;12.54;100.00
21760;BME280;11041;50.854;20.580;2023-06-26T04:02:08;98734.69;;;12.62;100.00
21760;BME280;11041;50.854;20.580;2023-06-26T04:04:34;98738.59;;;12.61;100.00
21760;BME280;11041;50.854;20.580;2023-06-26T04:07:01;98738.56;;;12.70;100.00
21760;BME280;11041;50.854;20.580;2023-06-26T04:09:28;98748.09;;;12.81;100.00
21760;BME280;11041;50.854;20.580;2023-06-26T04:11:55;98743.84;;;12.92;100.00
21760;BME280;11041;50.854;20.580;2023-06-26T04:14:21;98722.59;;;12.93;100.00
21760;BME280;11041;50.854;20.580;2023-06-26T04:16:48;98742.28;;;13.12;100.00
21760;BME280;11041;50.854;20.580;2023-06-26T04:19:15;98744.81;;;13.26;100.00
21760;BME280;11041;50.854;20.580;2023-06-26T04:21:42;98729.38;;;13.25;100.00
21760;BME280;11041;50.854;20.580;2023-06-26T04:24:09;98737.63;;;13.42;100.00
21760;BME280;11041;50.854;20.580;2023-06-26T04:26:35;98726.22;;;13.44;100.00
21760;BME280;11041;50.854;20.580;2023-06-26T04:29:02;98740.25;;;13.60;100.00
21760;BME280;11041;50.854;20.580;2023-06-26T04:31:29;98742.75;;;13.74;100.00
21760;BME280;11041;50.854;20.580;2023-06-26T04:33:56;98738.31;;;13.81;100.00
21760;BME280;11041;50.854;20.580;2023-06-26T04:36:24;98720.31;;;13.75;100.00
21760;BME280;11041;50.854;20.580;2023-06-26T04:38:55;98722.69;;;13.85;100.00
21760;BME280;11041;50.854;20.580;2023-06-26T04:41:22;98719.03;;;13.94;100.00
21760;BME280;11041;50.854;20.580;2023-06-26T04:43:48;98718.13;;;14.02;100.00
21760;BME280;11041;50.854;20.580;2023-06-26T04:46:15;98730.78;;;14.24;100.00
21760;BME280;11041;50.854;20.580;2023-06-26T04:48:42;98718.09;;;14.23;100.00
21760;BME280;11041;50.854;20.580;2023-06-26T04:51:11;98713.63;;;14.31;100.00
21760;BME280;11041;50.854;20.580;2023-06-26T04:53:38;98737.19;;;14.49;100.00
21760;BME280;11041;50.854;20.580;2023-06-26T04:56:04;98721.69;;;14.57;100.00
21760;BME280;11041;50.854;20.580;2023-06-26T04:58:31;98715.13;;;14.61;100.00
21760;BME280;11041;50.854;20.580;2023-06-26T05:00:57;98735.22;;;14.83;99.40
21760;BME280;11041;50.854;20.580;2023-06-26T05:03:24;98706.63;;;14.79;99.40
21760;BME280;11041;50.854;20.580;2023-06-26T05:05:51;98721.28;;;14.91;99.24
21760;BME280;11041;50.854;20.580;2023-06-26T05:08:22;98731.34;;;15.08;99.01
21760;BME280;11041;50.854;20.580;2023-06-26T05:10:50;98732.22;;;15.12;98.85
21760;BME280;11041;50.854;20.580;2023-06-26T05:13:16;98717.34;;;15.17;98.56
21760;BME280;11041;50.854;20.580;2023-06-26T05:15:47;98712.06;;;15.24;97.69
21760;BME280;11041;50.854;20.580;2023-06-26T05:18:13;98728.53;;;15.45;97.78
21760;BME280;11041;50.854;20.580;2023-06-26T05:20:40;98731.19;;;15.54;97.56
21760;BME280;11041;50.854;20.580;2023-06-26T05:23:07;98724.22;;;15.60;97.22
21760;BME280;11041;50.854;20.580;2023-06-26T05:25:35;98716.84;;;15.64;96.93
21760;BME280;11041;50.854;20.580;2023-06-26T05:28:03;98723.41;;;15.84;95.27
21760;BME280;11041;50.854;20.580;2023-06-26T05:30:35;98717.16;;;15.87;93.45
21760;BME280;11041;50.854;20.580;2023-06-26T05:33:03;98717.47;;;15.98;91.65
21760;BME280;11041;50.854;20.580;2023-06-26T05:35:34;98712.84;;;16.02;90.82
21760;BME280;11041;50.854;20.580;2023-06-26T05:38:02;98737.50;;;16.19;90.72
21760;BME280;11041;50.854;20.580;2023-06-26T05:40:29;98729.72;;;16.25;90.71
21760;BME280;11041;50.854;20.580;2023-06-26T05:42:56;98723.91;;;16.30;89.74
21760;BME280;11041;50.854;20.580;2023-06-26T05:45:22;98716.03;;;16.32;89.73
21760;BME280;11041;50.854;20.580;2023-06-26T05:47:49;98729.59;;;16.50;89.46
21760;BME280;11041;50.854;20.580;2023-06-26T05:50:18;98716.81;;;16.61;89.35
21760;BME280;11041;50.854;20.580;2023-06-26T05:52:46;98723.72;;;16.67;89.04
21760;BME280;11041;50.854;20.580;2023-06-26T05:55:13;98729.31;;;16.83;86.59
21760;BME280;11041;50.854;20.580;2023-06-26T05:57:41;98728.84;;;16.97;84.88
21760;BME280;11041;50.854;20.580;2023-06-26T06:00:09;98702.69;;;16.98;83.60
21760;BME280;11041;50.854;20.580;2023-06-26T06:02:39;98702.53;;;17.07;82.57
21760;BME280;11041;50.854;20.580;2023-06-26T06:05:06;98706.22;;;17.11;83.29
21760;BME280;11041;50.854;20.580;2023-06-26T06:07:34;98708.78;;;17.19;83.38
21760;BME280;11041;50.854;20.580;2023-06-26T06:10:03;98726.94;;;17.49;84.00
21760;BME280;11041;50.854;20.580;2023-06-26T06:12:30;98713.56;;;17.54;82.29
21760;BME280;11041;50.854;20.580;2023-06-26T06:14:56;98706.19;;;17.62;82.96
21760;BME280;11041;50.854;20.580;2023-06-26T06:17:23;98721.75;;;17.82;81.88
21760;BME280;11041;50.854;20.580;2023-06-26T06:19:49;98722.84;;;17.97;80.19
21760;BME280;11041;50.854;20.580;2023-06-26T06:22:16;98703.09;;;18.02;80.56
21760;BME280;11041;50.854;20.580;2023-06-26T06:24:43;98711.78;;;18.20;80.30
21760;BME280;11041;50.854;20.580;2023-06-26T06:27:10;98725.19;;;18.34;79.32
21760;BME280;11041;50.854;20.580;2023-06-26T06:29:37;98713.31;;;18.37;79.02
21760;BME280;11041;50.854;20.580;2023-06-26T06:32:04;98715.66;;;18.55;74.90
21760;BME280;11041;50.854;20.580;2023-06-26T06:34:31;98695.06;;;18.59;74.29
21760;BME280;11041;50.854;20.580;2023-06-26T06:36:57;98688.88;;;18.69;75.28
21760;BME280;11041;50.854;20.580;2023-06-26T06:39:24;98690.31;;;18.83;75.67
21760;BME280;11041;50.854;20.580;2023-06-26T06:41:50;98691.22;;;18.90;75.83
21760;BME280;11041;50.854;20.580;2023-06-26T06:44:17;98694.25;;;19.05;74.64
21760;BME280;11041;50.854;20.580;2023-06-26T06:46:43;98716.25;;;19.36;74.81
21760;BME280;11041;50.854;20.580;2023-06-26T06:49:10;98695.50;;;19.34;72.93
21760;BME280;11041;50.854;20.580;2023-06-26T06:51:36;98705.31;;;19.51;72.82
21760;BME280;11041;50.854;20.580;2023-06-26T06:54:03;98707.00;;;19.59;75.38
21760;BME280;11041;50.854;20.580;2023-06-26T06:56:29;98689.53;;;19.62;73.20
21760;BME280;11041;50.854;20.580;2023-06-26T06:58:56;98705.75;;;19.79;72.36
21760;BME280;11041;50.854;20.580;2023-06-26T07:01:22;98695.84;;;19.86;70.20
21760;BME280;11041;50.854;20.580;2023-06-26T07:03:49;98707.97;;;20.00;71.92
21760;BME280;11041;50.854;20.580;2023-06-26T07:06:15;98700.41;;;20.01;70.66
21760;BME280;11041;50.854;20.580;2023-06-26T07:08:42;98719.31;;;20.15;68.25
21760;BME280;11041;50.854;20.580;2023-06-26T07:11:09;98695.78;;;20.12;67.66
21760;BME280;11041;50.854;20.580;2023-06-26T07:13:35;98707.56;;;20.32;67.44
21760;BME280;11041;50.854;20.580;2023-06-26T07:16:02;98712.06;;;20.44;66.79
21760;BME280;11041;50.854;20.580;2023-06-26T07:18:29;98716.50;;;20.49;63.70
21760;BME280;11041;50.854;20.580;2023-06-26T07:20:56;98699.75;;;20.45;62.14
21760;BME280;11041;50.854;20.580;2023-06-26T07:23:22;98697.03;;;20.52;62.11
21760;BME280;11041;50.854;20.580;2023-06-26T07:25:48;98695.94;;;20.60;64.48
21760;BME280;11041;50.854;20.580;2023-06-26T07:28:15;98702.44;;;20.72;64.46
21760;BME280;11041;50.854;20.580;2023-06-26T07:30:42;98693.66;;;20.73;63.89
21760;BME280;11041;50.854;20.580;2023-06-26T07:33:08;98717.44;;;20.97;61.69
21760;BME280;11041;50.854;20.580;2023-06-26T07:35:35;98711.00;;;20.93;60.18
21760;BME280;11041;50.854;20.580;2023-06-26T07:38:02;98715.88;;;21.03;61.21
21760;BME280;11041;50.854;20.580;2023-06-26T07:40:28;98713.50;;;21.05;59.51
21760;BME280;11041;50.854;20.580;2023-06-26T07:42:55;98699.59;;;21.13;59.69
21760;BME280;11041;50.854;20.580;2023-06-26T07:45:23;98708.41;;;21.18;53.18
21760;BME280;11041;50.854;20.580;2023-06-26T07:47:50;98702.03;;;21.18;55.55
21760;BME280;11041;50.854;20.580;2023-06-26T07:50:16;98710.09;;;21.30;56.75
21760;BME280;11041;50.854;20.580;2023-06-26T07:52:48;98707.78;;;21.39;55.56
21760;BME280;11041;50.854;20.580;2023-06-26T07:55:14;98699.41;;;21.43;58.99
21760;BME280;11041;50.854;20.580;2023-06-26T07:57:41;98697.88;;;21.53;55.41
21760;BME280;11041;50.854;20.580;2023-06-26T08:00:08;98717.56;;;21.70;54.56
21760;BME280;11041;50.854;20.580;2023-06-26T08:02:35;98694.00;;;21.68;52.46
21760;BME280;11041;50.854;20.580;2023-06-26T08:05:01;98704.84;;;21.84;52.99
21760;BME280;11041;50.854;20.580;2023-06-26T08:07:29;98688.84;;;21.77;53.41
21760;BME280;11041;50.854;20.580;2023-06-26T08:09:55;98700.78;;;21.70;52.43
21760;BME280;11041;50.854;20.580;2023-06-26T08:12:21;98703.22;;;21.76;52.31
21760;BME280;11041;50.854;20.580;2023-06-26T08:14:48;98694.44;;;21.81;51.81
21760;BME280;11041;50.854;20.580;2023-06-26T08:17:14;98709.72;;;21.98;52.13
21760;BME280;11041;50.854;20.580;2023-06-26T08:19:41;98708.91;;;21.94;51.71
21760;BME280;11041;50.854;20.580;2023-06-26T08:22:07;98708.50;;;21.95;48.64
21760;BME280;11041;50.854;20.580;2023-06-26T08:24:34;98691.72;;;21.91;47.07
21760;BME280;11041;50.854;20.580;2023-06-26T08:27:01;98711.78;;;22.11;47.47
21760;BME280;11041;50.854;20.580;2023-06-26T08:29:28;98694.59;;;22.17;48.79
21760;BME280;11041;50.854;20.580;2023-06-26T08:31:54;98704.69;;;22.39;48.06
21760;BME280;11041;50.854;20.580;2023-06-26T08:34:20;98691.91;;;22.38;47.35
21760;BME280;11041;50.854;20.580;2023-06-26T08:36:47;98693.13;;;22.37;48.19
21760;BME280;11041;50.854;20.580;2023-06-26T08:39:14;98705.13;;;22.45;48.58
21760;BME280;11041;50.854;20.580;2023-06-26T08:41:41;98694.34;;;22.54;49.28
21760;BME280;11041;50.854;20.580;2023-06-26T08:44:08;98698.75;;;22.55;49.31
21760;BME280;11041;50.854;20.580;2023-06-26T08:46:35;98689.56;;;22.62;50.85
21760;BME280;11041;50.854;20.580;2023-06-26T08:51:56;98682.75;;;22.66;52.35
21760;BME280;11041;50.854;20.580;2023-06-26T08:54:33;98703.19;;;22.74;51.80
21760;BME280;11041;50.854;20.580;2023-06-26T08:57:03;98692.34;;;22.72;50.39
21760;BME280;11041;50.854;20.580;2023-06-26T08:59:32;98671.94;;;22.65;50.36
21760;BME280;11041;50.854;20.580;2023-06-26T09:01:59;98696.78;;;22.81;49.44
21760;BME280;11041;50.854;20.580;2023-06-26T09:04:25;98682.34;;;22.68;47.91
21760;BME280;11041;50.854;20.580;2023-06-26T09:06:53;98673.53;;;22.55;46.27
21760;BME280;11041;50.854;20.580;2023-06-26T09:09:19;98681.13;;;22.47;49.07
21760;BME280;11041;50.854;20.580;2023-06-26T09:11:47;98679.94;;;22.55;48.39
21760;BME280;11041;50.854;20.580;2023-06-26T09:14:14;98683.94;;;22.58;48.97
21760;BME280;11041;50.854;20.580;2023-06-26T09:16:41;98678.75;;;22.64;48.00
21760;BME280;11041;50.854;20.580;2023-06-26T09:19:12;98663.16;;;22.70;50.13
21760;BME280;11041;50.854;20.580;2023-06-26T09:21:43;98669.56;;;22.88;50.12
21760;BME280;11041;50.854;20.580;2023-06-26T09:24:10;98655.94;;;22.87;48.77
21760;BME280;11041;50.854;20.580;2023-06-26T09:26:39;98681.63;;;23.00;49.28
21760;BME280;11041;50.854;20.580;2023-06-26T09:29:07;98682.00;;;23.05;50.12
21760;BME280;11041;50.854;20.580;2023-06-26T09:31:38;98676.00;;;23.00;48.44
21760;BME280;11041;50.854;20.580;2023-06-26T09:34:05;98663.97;;;22.99;49.86
21760;BME280;11041;50.854;20.580;2023-06-26T09:36:33;98659.56;;;22.94;49.17
21760;BME280;11041;50.854;20.580;2023-06-26T09:39:07;98672.81;;;23.05;43.87
21760;BME280;11041;50.854;20.580;2023-06-26T09:41:41;98679.19;;;23.09;44.10
21760;BME280;11041;50.854;20.580;2023-06-26T09:44:13;98671.19;;;23.14;43.46
21760;BME280;11041;50.854;20.580;2023-06-26T09:46:40;98657.97;;;23.11;45.22
21760;BME280;11041;50.854;20.580;2023-06-26T09:49:11;98664.34;;;23.30;47.06
21760;BME280;11041;50.854;20.580;2023-06-26T09:51:40;98655.94;;;23.44;46.65
21760;BME280;11041;50.854;20.580;2023-06-26T09:54:07;98643.47;;;23.59;48.79
21760;BME280;11041;50.854;20.580;2023-06-26T09:56:35;98649.84;;;23.81;45.16
21760;BME280;11041;50.854;20.580;2023-06-26T09:59:05;98665.47;;;23.72;47.78
21760;BME280;11041;50.854;20.580;2023-06-26T10:01:33;98658.31;;;23.60;47.07
21760;BME280;11041;50.854;20.580;2023-06-26T10:04:00;98670.69;;;23.70;45.57
21760;BME280;11041;50.854;20.580;2023-06-26T10:06:43;98658.25;;;23.71;46.30
21760;BME280;11041;50.854;20.580;2023-06-26T10:09:14;98660.25;;;23.74;45.67
21760;BME280;11041;50.854;20.580;2023-06-26T10:12:01;98655.03;;;23.69;44.80
21760;BME280;11041;50.854;20.580;2023-06-26T10:14:35;98643.03;;;23.68;47.17
21760;BME280;11041;50.854;20.580;2023-06-26T10:17:21;98647.44;;;23.84;45.23
21760;BME280;11041;50.854;20.580;2023-06-26T10:19:51;98624.56;;;23.85;46.20
21760;BME280;11041;50.854;20.580;2023-06-26T10:22:27;98645.69;;;24.11;45.35
21760;BME280;11041;50.854;20.580;2023-06-26T10:24:58;98638.88;;;24.05;44.54
21760;BME280;11041;50.854;20.580;2023-06-26T10:27:33;98631.72;;;24.00;46.29
21760;BME280;11041;50.854;20.580;2023-06-26T10:30:08;98618.06;;;24.06;47.14
21760;BME280;11041;50.854;20.580;2023-06-26T10:32:36;98607.53;;;24.24;43.23
21760;BME280;11041;50.854;20.580;2023-06-26T10:35:06;98611.44;;;24.41;43.43
21760;BME280;11041;50.854;20.580;2023-06-26T10:37:48;98614.63;;;24.40;44.65
21760;BME280;11041;50.854;20.580;2023-06-26T10:40:25;98605.13;;;24.19;44.98
21760;BME280;11041;50.854;20.580;2023-06-26T10:43:14;98604.81;;;24.10;43.85
21760;BME280;11041;50.854;20.580;2023-06-26T10:45:49;98608.28;;;24.29;43.23
21760;BME280;11041;50.854;20.580;2023-06-26T10:48:22;98601.00;;;24.38;43.14
21760;BME280;11041;50.854;20.580;2023-06-26T10:50:49;98578.50;;;24.49;44.91
21760;BME280;11041;50.854;20.580;2023-06-26T10:56:01;98606.19;;;24.96;43.53
21760;BME280;11041;50.854;20.580;2023-06-26T10:58:42;98599.97;;;25.15;40.64
21760;BME280;11041;50.854;20.580;2023-06-26T11:04:05;98590.50;;;24.98;42.67
21760;BME280;11041;50.854;20.580;2023-06-26T11:06:34;98588.47;;;25.02;42.32
21760;BME280;11041;50.854;20.580;2023-06-26T11:09:14;98609.06;;;25.34;42.20
21760;BME280;11041;50.854;20.580;2023-06-26T11:14:26;98604.44;;;25.50;40.51
21760;BME280;11041;50.854;20.580;2023-06-26T11:16:56;98593.56;;;25.53;41.35
21760;BME280;11041;50.854;20.580;2023-06-26T11:19:27;98600.28;;;25.62;42.44
21760;BME280;11041;50.854;20.580;2023-06-26T11:22:03;98603.66;;;25.50;42.32
21760;BME280;11041;50.854;20.580;2023-06-26T11:24:31;98589.97;;;25.52;42.49
21760;BME280;11041;50.854;20.580;2023-06-26T11:27:01;98581.19;;;25.46;42.33
21760;BME280;11041;50.854;20.580;2023-06-26T11:29:29;98606.94;;;25.45;41.72
21760;BME280;11041;50.854;20.580;2023-06-26T11:32:02;98599.53;;;25.20;41.85
21760;BME280;11041;50.854;20.580;2023-06-26T11:34:33;98598.13;;;24.98;42.76
21760;BME280;11041;50.854;20.580;2023-06-26T11:37:01;98595.91;;;24.78;44.04
21760;BME280;11041;50.854;20.580;2023-06-26T11:39:28;98591.19;;;24.68;45.12
21760;BME280;11041;50.854;20.580;2023-06-26T11:41:55;98580.81;;;24.58;44.97
21760;BME280;11041;50.854;20.580;2023-06-26T11:44:22;98584.47;;;24.55;45.18
21760;BME280;11041;50.854;20.580;2023-06-26T11:46:52;98602.47;;;24.61;45.88
21760;BME280;11041;50.854;20.580;2023-06-26T11:49:22;98576.09;;;24.40;46.29
21760;BME280;11041;50.854;20.580;2023-06-26T11:51:49;98581.00;;;24.29;45.58
21760;BME280;11041;50.854;20.580;2023-06-26T11:54:23;98595.41;;;24.35;46.93
21760;BME280;11041;50.854;20.580;2023-06-26T11:56:58;98576.69;;;24.17;47.32
21760;BME280;11041;50.854;20.580;2023-06-26T11:59:39;98573.44;;;24.22;44.66
21760;BME280;11041;50.854;20.580;2023-06-26T12:02:13;98592.22;;;24.29;46.67
21760;BME280;11041;50.854;20.580;2023-06-26T12:04:42;98574.63;;;24.21;47.22
21760;BME280;11041;50.854;20.580;2023-06-26T12:07:10;98570.59;;;24.26;45.71
21760;BME280;11041;50.854;20.580;2023-06-26T12:09:45;98589.38;;;24.36;46.19
21760;BME280;11041;50.854;20.580;2023-06-26T12:12:16;98578.63;;;24.24;45.82
21760;BME280;11041;50.854;20.580;2023-06-26T12:14:43;98589.47;;;24.26;45.76
21760;BME280;11041;50.854;20.580;2023-06-26T12:17:12;98581.81;;;24.30;46.26
21760;BME280;11041;50.854;20.580;2023-06-26T12:19:47;98567.25;;;24.45;48.13
21760;BME280;11041;50.854;20.580;2023-06-26T12:22:18;98576.63;;;24.77;45.62
21760;BME280;11041;50.854;20.580;2023-06-26T12:24:47;98572.78;;;25.05;48.80
21760;BME280;11041;50.854;20.580;2023-06-26T12:27:15;98575.06;;;25.55;43.57
21760;BME280;11041;50.854;20.580;2023-06-26T12:29:51;98562.19;;;25.85;42.43
21760;BME280;11041;50.854;20.580;2023-06-26T12:32:25;98577.41;;;26.22;40.45
21760;BME280;11041;50.854;20.580;2023-06-26T12:34:52;98565.41;;;26.18;40.19
21760;BME280;11041;50.854;20.580;2023-06-26T12:37:19;98574.13;;;26.27;40.10
21760;BME280;11041;50.854;20.580;2023-06-26T12:39:58;98571.59;;;26.32;40.88
21760;BME280;11041;50.854;20.580;2023-06-26T12:42:27;98559.22;;;26.53;39.40
21760;BME280;11041;50.854;20.580;2023-06-26T12:44:54;98554.31;;;26.58;39.43
21760;BME280;11041;50.854;20.580;2023-06-26T12:47:27;98537.84;;;26.80;39.24
21760;BME280;11041;50.854;20.580;2023-06-26T12:49:54;98532.75;;;26.94;38.98
21760;BME280;11041;50.854;20.580;2023-06-26T12:52:21;98543.16;;;27.21;39.82
21760;BME280;11041;50.854;20.580;2023-06-26T12:54:53;98551.38;;;27.32;37.98
21760;BME280;11041;50.854;20.580;2023-06-26T12:57:22;98531.94;;;27.37;38.57
21760;BME280;11041;50.854;20.580;2023-06-26T12:59:48;98549.94;;;27.24;40.40
21760;BME280;11041;50.854;20.580;2023-06-26T13:02:15;98541.91;;;27.22;39.37
21760;BME280;11041;50.854;20.580;2023-06-26T13:04:41;98526.25;;;26.74;38.12
21760;BME280;11041;50.854;20.580;2023-06-26T13:07:11;98543.75;;;26.65;39.69
21760;BME280;11041;50.854;20.580;2023-06-26T13:09:38;98535.84;;;26.53;39.87
21760;BME280;11041;50.854;20.580;2023-06-26T13:12:06;98520.94;;;26.56;37.86
21760;BME280;11041;50.854;20.580;2023-06-26T13:14:33;98532.63;;;26.54;38.58
21760;BME280;11041;50.854;20.580;2023-06-26T13:17:04;98518.78;;;26.87;38.67
21760;BME280;11041;50.854;20.580;2023-06-26T13:19:30;98510.03;;;27.25;38.29